Time;durP1;ratioP1;P1;durP2;ratioP2;P2;SDS_P1;SDS_P2;PMS_P1;PMS_P2;Temp;Humidity;BMP_temperature;BMP_pressure;BME280_temperature;BME280_humidity;BME280_pressure;Samples;Min_cycle;Max_cycle;Signal;HPM_P1;HPM_P2
2021/03/12 00:00:06;;;;;;;0.30;0.30;;;;;;;;;;5052541;28;20203;-74
2021/03/12 00:02:33;;;;;;;0.10;0.10;;;;;;;;;;5075386;28;20213;-73
2021/03/12 00:04:58;;;;;;;0.10;0.10;;;;;;;;;;5071011;28;20412;-74
2021/03/12 00:07:25;;;;;;;0.10;0.10;;;;;;;;;;5051519;28;20229;-74
2021/03/12 00:09:52;;;;;;;6.90;4.33;;;;;;;;;;5063912;28;20203;-73
2021/03/12 00:12:18;;;;;;;0.20;0.20;;;;;;;;;;5062812;28;20494;-74
2021/03/12 00:14:45;;;;;;;0.10;0.10;;;;;;;;;;5053060;28;20199;-73
2021/03/12 00:17:11;;;;;;;0.10;0.10;;;;;;;;;;5055869;28;20222;-72
2021/03/12 00:19:37;;;;;;;0.10;0.10;;;;;;;;;;5057974;28;20201;-73
2021/03/12 00:22:03;;;;;;;0.10;0.10;;;;;;;;;;5092003;28;20210;-73
2021/03/12 00:24:29;;;;;;;0.10;0.10;;;;;;;;;;5074823;28;20204;-74
2021/03/12 00:26:59;;;;;;;0.10;0.10;;;;;;;;;;5080172;28;20205;-73
2021/03/12 00:29:25;;;;;;;0.10;0.10;;;;;;;;;;5082156;28;20269;-75
2021/03/12 00:31:51;;;;;;;0.10;0.10;;;;;;;;;;5082414;28;20206;-74
2021/03/12 00:34:17;;;;;;;0.10;0.10;;;;;;;;;;5062530;28;20202;-72
2021/03/12 00:36:43;;;;;;;0.10;0.10;;;;;;;;;;5057012;28;20202;-74
2021/03/12 00:39:10;;;;;;;0.10;0.10;;;;;;;;;;5056662;28;20219;-74
2021/03/12 00:41:36;;;;;;;0.10;0.10;;;;;;;;;;5075687;28;20207;-74
2021/03/12 00:44:03;;;;;;;0.20;0.20;;;;;;;;;;5052593;28;20425;-74
2021/03/12 00:46:29;;;;;;;0.10;0.10;;;;;;;;;;5049525;28;20205;-74
2021/03/12 00:48:56;;;;;;;0.10;0.10;;;;;;;;;;5052604;28;20203;-74
2021/03/12 00:51:22;;;;;;;0.20;0.20;;;;;;;;;;5071449;28;20201;-73
2021/03/12 00:53:48;;;;;;;0.20;0.20;;;;;;;;;;5070870;28;20439;-73
2021/03/12 00:56:14;;;;;;;0.20;0.20;;;;;;;;;;5075427;28;20202;-74
2021/03/12 00:58:41;;;;;;;0.10;0.10;;;;;;;;;;5062527;28;20516;-74
2021/03/12 01:01:09;;;;;;;0.10;0.10;;;;;;;;;;5063405;28;20233;-75
2021/03/12 01:03:35;;;;;;;0.10;0.10;;;;;;;;;;5063292;28;20205;-74
2021/03/12 01:06:01;;;;;;;0.10;0.10;;;;;;;;;;5064572;28;20202;-73
2021/03/12 01:08:27;;;;;;;0.10;0.10;;;;;;;;;;5058200;28;20443;-73
2021/03/12 01:10:54;;;;;;;0.10;0.10;;;;;;;;;;5081048;28;20202;-73
2021/03/12 01:13:20;;;;;;;0.10;0.10;;;;;;;;;;5054631;28;20243;-73
2021/03/12 01:15:46;;;;;;;0.17;0.17;;;;;;;;;;5078541;28;20206;-73
2021/03/12 01:18:13;;;;;;;0.10;0.10;;;;;;;;;;5051921;28;20431;-75
2021/03/12 01:20:40;;;;;;;0.10;0.10;;;;;;;;;;5080632;28;20205;-74
2021/03/12 01:23:07;;;;;;;0.20;0.20;;;;;;;;;;5059013;28;20534;-73
2021/03/12 01:25:38;;;;;;;0.13;0.13;;;;;;;;;;5077017;28;20200;-73
2021/03/12 01:28:04;;;;;;;0.10;0.10;;;;;;;;;;5076479;28;20200;-72
2021/03/12 01:30:32;;;;;;;0.20;0.20;;;;;;;;;;5060873;28;20256;-74
2021/03/12 01:32:59;;;;;;;0.17;0.17;;;;;;;;;;5079736;28;20250;-74
2021/03/12 01:35:26;;;;;;;0.10;0.10;;;;;;;;;;5063254;28;20202;-74
2021/03/12 01:37:52;;;;;;;0.20;0.20;;;;;;;;;;5062647;28;20222;-74
2021/03/12 01:40:19;;;;;;;0.10;0.10;;;;;;;;;;5053548;28;20210;-73
2021/03/12 01:42:46;;;;;;;0.20;0.20;;;;;;;;;;5047464;28;20400;-72
2021/03/12 01:45:13;;;;;;;0.10;0.10;;;;;;;;;;5045127;28;20208;-73
2021/03/12 01:47:39;;;;;;;0.20;0.20;;;;;;;;;;5076298;28;20198;-74
2021/03/12 01:50:06;;;;;;;0.10;0.10;;;;;;;;;;5075245;28;20404;-74
2021/03/12 01:52:33;;;;;;;0.20;0.20;;;;;;;;;;5056645;28;20210;-73
2021/03/12 01:54:59;;;;;;;0.10;0.10;;;;;;;;;;5077174;28;20206;-73
2021/03/12 01:57:26;;;;;;;0.10;0.10;;;;;;;;;;5057894;28;20245;-74
2021/03/12 01:59:52;;;;;;;0.10;0.10;;;;;;;;;;5062510;28;20368;-73
2021/03/12 02:02:18;;;;;;;0.20;0.20;;;;;;;;;;5064018;28;20517;-73
2021/03/12 02:04:45;;;;;;;0.20;0.20;;;;;;;;;;5045951;28;20441;-74
2021/03/12 02:07:11;;;;;;;0.80;0.80;;;;;;;;;;5046558;28;20209;-74
2021/03/12 02:09:38;;;;;;;0.10;0.10;;;;;;;;;;5045179;28;20244;-74
2021/03/12 02:12:17;;;;;;;0.10;0.10;;;;;;;;;;5055595;28;20213;-73
2021/03/12 02:14:46;;;;;;;0.20;0.20;;;;;;;;;;5070501;28;20201;-74
2021/03/12 02:17:15;;;;;;;0.10;0.10;;;;;;;;;;5071232;28;20498;-73
2021/03/12 02:19:51;;;;;;;0.20;0.20;;;;;;;;;;5079080;28;20201;-73
2021/03/12 02:22:18;;;;;;;0.10;0.10;;;;;;;;;;5084561;28;20222;-73
2021/03/12 02:24:47;;;;;;;0.10;0.10;;;;;;;;;;5065382;28;20555;-74
2021/03/12 02:27:14;;;;;;;0.20;0.20;;;;;;;;;;5080628;28;20204;-73
2021/03/12 02:29:43;;;;;;;0.20;0.20;;;;;;;;;;5081925;28;20474;-73
2021/03/12 02:32:10;;;;;;;0.10;0.10;;;;;;;;;;5067395;28;20209;-73
2021/03/12 02:34:37;;;;;;;0.10;0.10;;;;;;;;;;5065881;28;20275;-73
2021/03/12 02:37:04;;;;;;;0.10;0.10;;;;;;;;;;5074522;28;20199;-73
2021/03/12 02:39:32;;;;;;;0.20;0.20;;;;;;;;;;5079613;28;20210;-73
2021/03/12 02:41:59;;;;;;;0.10;0.10;;;;;;;;;;5049229;28;20482;-73
2021/03/12 02:44:27;;;;;;;0.10;0.10;;;;;;;;;;5054039;28;20404;-73
2021/03/12 02:46:56;;;;;;;0.10;0.10;;;;;;;;;;5068252;28;20391;-73
2021/03/12 02:49:22;;;;;;;0.10;0.10;;;;;;;;;;5074339;28;20210;-74
2021/03/12 02:51:48;;;;;;;0.20;0.20;;;;;;;;;;5076957;28;20550;-74
2021/03/12 02:54:16;;;;;;;0.20;0.20;;;;;;;;;;5055253;28;20203;-73
2021/03/12 02:56:43;;;;;;;0.13;0.13;;;;;;;;;;5049416;28;20382;-73
2021/03/12 02:59:09;;;;;;;0.10;0.10;;;;;;;;;;5056476;28;20271;-74
2021/03/12 03:01:36;;;;;;;0.20;0.20;;;;;;;;;;5076736;28;20199;-74
2021/03/12 03:04:03;;;;;;;0.10;0.10;;;;;;;;;;5064089;28;20279;-73
2021/03/12 03:06:29;;;;;;;0.20;0.20;;;;;;;;;;5064434;28;20201;-73
2021/03/12 03:08:56;;;;;;;0.10;0.10;;;;;;;;;;5060303;28;20198;-74
2021/03/12 03:11:22;;;;;;;0.20;0.20;;;;;;;;;;5046218;28;20240;-74
2021/03/12 03:13:50;;;;;;;0.20;0.20;;;;;;;;;;5078653;28;20498;-74
2021/03/12 03:16:17;;;;;;;0.20;0.20;;;;;;;;;;5048008;28;20201;-74
2021/03/12 03:18:45;;;;;;;0.10;0.10;;;;;;;;;;5069712;28;20226;-74
2021/03/12 03:21:13;;;;;;;0.10;0.10;;;;;;;;;;5049237;28;20207;-74
2021/03/12 03:23:40;;;;;;;0.20;0.20;;;;;;;;;;5069146;28;20205;-74
2021/03/12 03:26:06;;;;;;;0.20;0.20;;;;;;;;;;5056555;28;20397;-73
2021/03/12 03:28:32;;;;;;;0.10;0.10;;;;;;;;;;5083316;28;20263;-73
2021/03/12 03:30:59;;;;;;;0.20;0.20;;;;;;;;;;5056881;28;20195;-73
2021/03/12 03:33:26;;;;;;;0.20;0.20;;;;;;;;;;5080696;28;20205;-73
2021/03/12 03:35:52;;;;;;;0.13;0.13;;;;;;;;;;5078296;28;20222;-72
2021/03/12 03:38:19;;;;;;;0.20;0.20;;;;;;;;;;5082163;28;20221;-75
2021/03/12 03:40:44;;;;;;;0.17;0.17;;;;;;;;;;5080100;28;20427;-72
2021/03/12 03:43:11;;;;;;;0.70;0.70;;;;;;;;;;5081312;28;20220;-73
2021/03/12 03:45:38;;;;;;;0.10;0.10;;;;;;;;;;5051679;28;20202;-72
2021/03/12 03:48:06;;;;;;;0.10;0.10;;;;;;;;;;5056390;28;20199;-74
2021/03/12 03:50:33;;;;;;;0.20;0.20;;;;;;;;;;5070987;28;20211;-73
2021/03/12 03:53:00;;;;;;;0.20;0.20;;;;;;;;;;5060673;28;20197;-73
2021/03/12 03:55:27;;;;;;;0.20;0.20;;;;;;;;;;5068729;28;20427;-74
2021/03/12 03:57:53;;;;;;;0.20;0.20;;;;;;;;;;5056914;28;20222;-73
2021/03/12 04:00:20;;;;;;;0.10;0.10;;;;;;;;;;5064367;28;20540;-73
2021/03/12 04:02:47;;;;;;;0.20;0.20;;;;;;;;;;5076893;28;20374;-73
2021/03/12 04:05:14;;;;;;;0.10;0.10;;;;;;;;;;5078029;28;20525;-73
2021/03/12 04:07:40;;;;;;;0.10;0.10;;;;;;;;;;5053253;28;20198;-74
2021/03/12 04:10:09;;;;;;;0.10;0.10;;;;;;;;;;5061977;28;20195;-72
2021/03/12 04:12:37;;;;;;;0.20;0.20;;;;;;;;;;5082075;28;20209;-74
2021/03/12 04:15:03;;;;;;;0.20;0.20;;;;;;;;;;5061422;28;20201;-72
2021/03/12 04:17:30;;;;;;;0.10;0.10;;;;;;;;;;5070138;28;20213;-73
2021/03/12 04:19:59;;;;;;;0.10;0.10;;;;;;;;;;5064091;28;20506;-74
2021/03/12 04:22:25;;;;;;;0.20;0.20;;;;;;;;;;5064211;28;20401;-73
2021/03/12 04:24:51;;;;;;;0.20;0.20;;;;;;;;;;5066587;28;20203;-73
2021/03/12 04:27:20;;;;;;;0.20;0.20;;;;;;;;;;5053976;28;20201;-74
2021/03/12 04:29:46;;;;;;;0.10;0.10;;;;;;;;;;5055430;28;20205;-73
2021/03/12 04:32:12;;;;;;;0.20;0.20;;;;;;;;;;5062969;28;20208;-74
2021/03/12 04:34:39;;;;;;;0.20;0.20;;;;;;;;;;5079550;28;20212;-74
2021/03/12 04:37:06;;;;;;;0.20;0.20;;;;;;;;;;5056006;28;20202;-75
2021/03/12 04:39:32;;;;;;;0.13;0.13;;;;;;;;;;5058771;28;20227;-73
2021/03/12 04:41:59;;;;;;;1.07;1.07;;;;;;;;;;5059507;28;20480;-73
2021/03/12 04:44:26;;;;;;;0.10;0.10;;;;;;;;;;5079944;28;20272;-73
2021/03/12 04:46:53;;;;;;;0.10;0.10;;;;;;;;;;5064942;28;20435;-74
2021/03/12 04:49:19;;;;;;;0.10;0.10;;;;;;;;;;5057441;28;20217;-72
2021/03/12 04:51:46;;;;;;;0.10;0.10;;;;;;;;;;5061923;28;20209;-74
2021/03/12 04:54:15;;;;;;;0.20;0.20;;;;;;;;;;5046490;28;20500;-73
2021/03/12 04:56:41;;;;;;;0.10;0.10;;;;;;;;;;5049536;28;20357;-73
2021/03/12 04:59:07;;;;;;;0.20;0.20;;;;;;;;;;5065603;28;20216;-72
2021/03/12 05:01:35;;;;;;;0.10;0.10;;;;;;;;;;5060077;28;20209;-73
2021/03/12 05:04:03;;;;;;;0.13;0.13;;;;;;;;;;5055663;28;20222;-73
2021/03/12 05:06:29;;;;;;;0.10;0.10;;;;;;;;;;5061418;28;20266;-73
2021/03/12 05:08:56;;;;;;;0.20;0.20;;;;;;;;;;5058871;28;20420;-74
2021/03/12 05:11:22;;;;;;;0.10;0.10;;;;;;;;;;5082117;28;20516;-74
2021/03/12 05:13:49;;;;;;;0.20;0.20;;;;;;;;;;5061823;28;20495;-75
2021/03/12 05:16:15;;;;;;;0.10;0.10;;;;;;;;;;5063217;28;20413;-73
2021/03/12 05:18:42;;;;;;;0.10;0.10;;;;;;;;;;5049488;28;20223;-75
2021/03/12 05:21:09;;;;;;;0.20;0.20;;;;;;;;;;5073673;28;20201;-75
2021/03/12 05:23:35;;;;;;;0.20;0.20;;;;;;;;;;5054023;28;20373;-73
2021/03/12 05:26:02;;;;;;;0.20;0.20;;;;;;;;;;5055603;28;20206;-75
2021/03/12 05:28:28;;;;;;;0.10;0.10;;;;;;;;;;5068716;28;20241;-72
2021/03/12 05:30:54;;;;;;;0.20;0.20;;;;;;;;;;5071849;28;20540;-73
2021/03/12 05:33:20;;;;;;;0.20;0.20;;;;;;;;;;5053038;28;20203;-73
2021/03/12 05:35:47;;;;;;;0.20;0.20;;;;;;;;;;5077240;28;20197;-73
2021/03/12 05:38:13;;;;;;;0.10;0.10;;;;;;;;;;5055049;28;20221;-73
2021/03/12 05:40:39;;;;;;;0.20;0.20;;;;;;;;;;5072656;28;20198;-74
2021/03/12 05:43:08;;;;;;;0.20;0.20;;;;;;;;;;5080440;28;20199;-74
2021/03/12 05:45:33;;;;;;;0.20;0.20;;;;;;;;;;5075882;28;20518;-73
2021/03/12 05:48:00;;;;;;;0.10;0.10;;;;;;;;;;5059127;28;20212;-73
2021/03/12 05:50:26;;;;;;;0.20;0.17;;;;;;;;;;5082804;28;20203;-73
2021/03/12 05:52:53;;;;;;;0.20;0.20;;;;;;;;;;5066933;28;20199;-76
2021/03/12 05:55:19;;;;;;;0.20;0.20;;;;;;;;;;5079615;28;20207;-74
2021/03/12 05:57:46;;;;;;;0.20;0.20;;;;;;;;;;5080262;28;20245;-75
2021/03/12 06:00:13;;;;;;;0.20;0.20;;;;;;;;;;5071512;28;20206;-73
2021/03/12 06:02:39;;;;;;;0.20;0.20;;;;;;;;;;5075337;28;20205;-73
2021/03/12 06:05:06;;;;;;;0.10;0.10;;;;;;;;;;5086728;28;20294;-72
2021/03/12 06:07:33;;;;;;;0.10;0.10;;;;;;;;;;5054734;28;20249;-73
2021/03/12 06:10:00;;;;;;;0.20;0.20;;;;;;;;;;5065569;28;20243;-73
2021/03/12 06:12:26;;;;;;;0.27;0.27;;;;;;;;;;5083310;28;20246;-73
2021/03/12 06:14:54;;;;;;;0.20;0.20;;;;;;;;;;5065272;28;20199;-73
2021/03/12 06:17:39;;;;;;;0.20;0.20;;;;;;;;;;5065519;28;20213;-74
2021/03/12 06:20:09;;;;;;;0.10;0.10;;;;;;;;;;5079453;28;20206;-73
2021/03/12 06:22:36;;;;;;;0.10;0.10;;;;;;;;;;5077530;28;20215;-74
2021/03/12 06:25:11;;;;;;;0.40;0.40;;;;;;;;;;5097641;28;20203;-74
2021/03/12 06:27:38;;;;;;;0.20;0.20;;;;;;;;;;5076128;28;20196;-74
2021/03/12 06:30:05;;;;;;;0.20;0.20;;;;;;;;;;5083355;28;20485;-74
2021/03/12 06:32:38;;;;;;;0.20;0.20;;;;;;;;;;5081490;28;20396;-74
2021/03/12 06:35:05;;;;;;;0.20;0.20;;;;;;;;;;5055915;28;20387;-73
2021/03/12 06:37:32;;;;;;;0.20;0.20;;;;;;;;;;5080660;28;20217;-74
2021/03/12 06:39:59;;;;;;;0.50;0.50;;;;;;;;;;5056102;28;20200;-74
2021/03/12 06:42:26;;;;;;;0.20;0.20;;;;;;;;;;5076041;28;20410;-74
2021/03/12 06:44:52;;;;;;;0.20;0.20;;;;;;;;;;5073539;28;20203;-74
2021/03/12 06:47:22;;;;;;;0.20;0.20;;;;;;;;;;5076889;28;20206;-74
2021/03/12 06:49:53;;;;;;;0.20;0.20;;;;;;;;;;5057965;28;20211;-73
2021/03/12 06:52:19;;;;;;;0.20;0.20;;;;;;;;;;5083118;28;20219;-74
2021/03/12 06:54:52;;;;;;;0.20;0.20;;;;;;;;;;5062480;28;20245;-74
2021/03/12 06:57:19;;;;;;;0.20;0.20;;;;;;;;;;5073462;28;20203;-73
2021/03/12 06:59:46;;;;;;;0.20;0.20;;;;;;;;;;5076246;28;20542;-74
2021/03/12 07:02:12;;;;;;;0.20;0.20;;;;;;;;;;5076480;28;20207;-74
2021/03/12 07:04:39;;;;;;;0.20;0.20;;;;;;;;;;5048683;28;20228;-72
2021/03/12 07:07:05;;;;;;;0.17;0.17;;;;;;;;;;5072172;28;20199;-73
2021/03/12 07:09:31;;;;;;;1.33;1.23;;;;;;;;;;5060893;28;20202;-74
2021/03/12 07:11:58;;;;;;;0.20;0.20;;;;;;;;;;5081166;28;20245;-74
2021/03/12 07:14:24;;;;;;;0.20;0.20;;;;;;;;;;5053298;28;20206;-74
2021/03/12 07:16:51;;;;;;;0.23;0.23;;;;;;;;;;5079166;28;20230;-74
2021/03/12 07:19:17;;;;;;;0.20;0.20;;;;;;;;;;5085522;28;20235;-75
2021/03/12 07:21:46;;;;;;;0.20;0.20;;;;;;;;;;5083347;28;20270;-74
2021/03/12 07:24:14;;;;;;;0.17;0.17;;;;;;;;;;5052507;28;20418;-75
2021/03/12 07:26:42;;;;;;;0.10;0.10;;;;;;;;;;5078318;28;20207;-74
2021/03/12 07:29:11;;;;;;;0.20;0.20;;;;;;;;;;5061978;28;20197;-75
2021/03/12 07:31:38;;;;;;;0.10;0.10;;;;;;;;;;5078721;28;20288;-76
2021/03/12 07:34:07;;;;;;;2.17;2.10;;;;;;;;;;5061835;28;20202;-74
2021/03/12 07:36:32;;;;;;;0.47;0.23;;;;;;;;;;5075196;28;20533;-75
2021/03/12 07:39:01;;;;;;;0.10;0.10;;;;;;;;;;5067306;28;20232;-76
2021/03/12 07:41:27;;;;;;;0.13;0.13;;;;;;;;;;5074101;28;20281;-76
2021/03/12 07:43:53;;;;;;;0.10;0.10;;;;;;;;;;5059587;28;20198;-76
2021/03/12 07:46:20;;;;;;;0.10;0.10;;;;;;;;;;5074174;28;20208;-75
2021/03/12 07:48:47;;;;;;;0.10;0.10;;;;;;;;;;5055706;28;20411;-76
2021/03/12 07:51:15;;;;;;;0.40;0.40;;;;;;;;;;5081815;28;20323;-74
2021/03/12 07:53:51;;;;;;;0.20;0.20;;;;;;;;;;5055765;28;20202;-74
2021/03/12 07:56:18;;;;;;;0.17;0.17;;;;;;;;;;5060568;28;20205;-74
2021/03/12 07:58:55;;;;;;;0.10;0.10;;;;;;;;;;5062845;28;20221;-75
2021/03/12 08:01:21;;;;;;;0.57;0.57;;;;;;;;;;5081800;28;20206;-75
2021/03/12 08:03:49;;;;;;;0.10;0.10;;;;;;;;;;5078471;28;20225;-77
2021/03/12 08:06:29;;;;;;;0.20;0.20;;;;;;;;;;5059940;28;20356;-77
2021/03/12 08:08:56;;;;;;;0.17;0.17;;;;;;;;;;5061247;28;20484;-76
2021/03/12 08:11:22;;;;;;;0.10;0.10;;;;;;;;;;5071004;28;20205;-77
2021/03/12 08:13:49;;;;;;;0.10;0.10;;;;;;;;;;5064450;28;20230;-76
2021/03/12 08:16:16;;;;;;;0.10;0.10;;;;;;;;;;5063131;28;20203;-76
2021/03/12 08:18:42;;;;;;;0.20;0.20;;;;;;;;;;5079601;28;20225;-77
2021/03/12 08:21:29;;;;;;;0.47;0.47;;;;;;;;;;5076682;28;20239;-75
2021/03/12 08:23:56;;;;;;;0.23;0.23;;;;;;;;;;5080988;28;20200;-76
2021/03/12 08:26:37;;;;;;;0.10;0.10;;;;;;;;;;5075513;28;20218;-77
2021/03/12 08:29:18;;;;;;;0.10;0.10;;;;;;;;;;5078851;28;20378;-77
2021/03/12 08:31:44;;;;;;;0.10;0.10;;;;;;;;;;5076374;28;20209;-74
2021/03/12 08:34:25;;;;;;;0.10;0.10;;;;;;;;;;5052324;28;20281;-75
2021/03/12 08:36:51;;;;;;;0.13;0.13;;;;;;;;;;5090778;28;20225;-77
2021/03/12 08:39:28;;;;;;;0.20;0.20;;;;;;;;;;5062832;28;20222;-76
2021/03/12 08:41:55;;;;;;;0.10;0.10;;;;;;;;;;5078530;28;20202;-75
2021/03/12 08:44:23;;;;;;;0.20;0.20;;;;;;;;;;5063760;28;20439;-75
2021/03/12 08:46:50;;;;;;;0.10;0.10;;;;;;;;;;5077971;28;20205;-73
2021/03/12 08:49:16;;;;;;;0.20;0.20;;;;;;;;;;5051345;28;20278;-75
2021/03/12 08:51:43;;;;;;;0.17;0.17;;;;;;;;;;5052610;28;20243;-76
2021/03/12 08:54:10;;;;;;;0.20;0.20;;;;;;;;;;5058225;28;20206;-75
2021/03/12 08:56:37;;;;;;;0.87;0.87;;;;;;;;;;5061985;28;20197;-74
2021/03/12 08:59:04;;;;;;;0.10;0.10;;;;;;;;;;5062915;28;20249;-75
2021/03/12 09:01:31;;;;;;;0.20;0.20;;;;;;;;;;5078371;28;20392;-74
2021/03/12 09:03:59;;;;;;;0.10;0.10;;;;;;;;;;5077529;28;20225;-75
2021/03/12 09:06:27;;;;;;;0.10;0.10;;;;;;;;;;5058306;28;20203;-74
2021/03/12 09:08:54;;;;;;;0.10;0.10;;;;;;;;;;5063395;28;20241;-74
2021/03/12 09:11:21;;;;;;;0.10;0.10;;;;;;;;;;5080726;28;20208;-73
2021/03/12 09:13:49;;;;;;;0.10;0.10;;;;;;;;;;5058761;28;20202;-74
2021/03/12 09:16:17;;;;;;;0.20;0.20;;;;;;;;;;5056457;28;20202;-74
2021/03/12 09:18:44;;;;;;;0.10;0.10;;;;;;;;;;5061666;28;20297;-74
2021/03/12 09:21:11;;;;;;;0.10;0.10;;;;;;;;;;5059380;28;20275;-75
2021/03/12 09:23:40;;;;;;;0.10;0.10;;;;;;;;;;5056660;28;20202;-74
2021/03/12 09:26:07;;;;;;;0.10;0.10;;;;;;;;;;5076984;28;20412;-74
2021/03/12 09:28:33;;;;;;;0.10;0.10;;;;;;;;;;5061880;28;20273;-76
2021/03/12 09:31:02;;;;;;;0.10;0.10;;;;;;;;;;5077449;28;20199;-75
2021/03/12 09:33:29;;;;;;;0.10;0.10;;;;;;;;;;5080428;28;20281;-76
2021/03/12 09:35:56;;;;;;;0.20;0.20;;;;;;;;;;5078909;28;20203;-74
2021/03/12 09:38:30;;;;;;;0.20;0.20;;;;;;;;;;5061685;28;20328;-74
2021/03/12 09:40:57;;;;;;;0.10;0.10;;;;;;;;;;5060292;28;20448;-74
2021/03/12 09:43:23;;;;;;;0.10;0.10;;;;;;;;;;5051890;28;20252;-75
2021/03/12 09:45:50;;;;;;;0.10;0.10;;;;;;;;;;5054440;28;20202;-75
2021/03/12 09:48:17;;;;;;;0.10;0.10;;;;;;;;;;5078650;28;20281;-75
2021/03/12 09:50:44;;;;;;;0.10;0.10;;;;;;;;;;5075565;28;20207;-75
2021/03/12 09:53:11;;;;;;;0.10;0.10;;;;;;;;;;5057207;28;20444;-74
2021/03/12 09:55:39;;;;;;;0.10;0.10;;;;;;;;;;5076407;28;20310;-74
2021/03/12 09:58:07;;;;;;;0.10;0.10;;;;;;;;;;5063627;28;20220;-75
2021/03/12 10:00:34;;;;;;;0.10;0.10;;;;;;;;;;5079446;28;20205;-74
2021/03/12 10:03:00;;;;;;;0.10;0.10;;;;;;;;;;5062365;28;20209;-74
2021/03/12 10:05:27;;;;;;;0.10;0.10;;;;;;;;;;5077319;28;20299;-74
2021/03/12 10:07:54;;;;;;;0.30;0.30;;;;;;;;;;5062048;28;20227;-74
2021/03/12 10:10:23;;;;;;;0.10;0.10;;;;;;;;;;5058103;28;20213;-75
2021/03/12 10:12:51;;;;;;;0.10;0.10;;;;;;;;;;5062010;28;20516;-74
2021/03/12 10:15:18;;;;;;;0.10;0.10;;;;;;;;;;5076853;28;20477;-76
2021/03/12 10:17:44;;;;;;;0.10;0.10;;;;;;;;;;5070438;28;20214;-75
2021/03/12 10:20:18;;;;;;;0.10;0.10;;;;;;;;;;5068582;28;20234;-74
2021/03/12 10:22:47;;;;;;;0.10;0.10;;;;;;;;;;5069064;28;20493;-74
2021/03/12 10:25:15;;;;;;;0.10;0.10;;;;;;;;;;5079073;28;20245;-75
2021/03/12 10:27:44;;;;;;;0.10;0.10;;;;;;;;;;5078956;28;20245;-74
2021/03/12 10:30:12;;;;;;;0.10;0.10;;;;;;;;;;5058272;28;20404;-74
2021/03/12 10:32:39;;;;;;;0.10;0.10;;;;;;;;;;5075687;28;20205;-74
2021/03/12 10:35:14;;;;;;;0.10;0.10;;;;;;;;;;5077930;28;20472;-75
2021/03/12 10:37:41;;;;;;;0.20;0.20;;;;;;;;;;5078309;28;20432;-74
2021/03/12 10:40:09;;;;;;;0.53;0.53;;;;;;;;;;5078096;28;20293;-73
2021/03/12 10:42:35;;;;;;;0.10;0.10;;;;;;;;;;5066987;28;20200;-74
2021/03/12 10:45:04;;;;;;;0.20;0.20;;;;;;;;;;5076409;28;20444;-76
2021/03/12 10:47:30;;;;;;;0.77;0.63;;;;;;;;;;5078732;28;20698;-74
2021/03/12 10:49:57;;;;;;;0.40;0.40;;;;;;;;;;5057352;28;20208;-74
2021/03/12 10:52:28;;;;;;;0.10;0.10;;;;;;;;;;5058006;28;20207;-74
2021/03/12 10:54:55;;;;;;;0.10;0.10;;;;;;;;;;5077703;28;20200;-75
2021/03/12 10:57:58;;;;;;;0.10;0.10;;;;;;;;;;5073479;28;20253;-74
2021/03/12 11:00:26;;;;;;;0.20;0.20;;;;;;;;;;4992367;28;20230;-75
2021/03/12 11:02:56;;;;;;;0.20;0.20;;;;;;;;;;5049204;28;20207;-74
2021/03/12 11:05:22;;;;;;;0.10;0.10;;;;;;;;;;5084317;28;20224;-74
2021/03/12 11:07:49;;;;;;;0.10;0.10;;;;;;;;;;5081260;28;20204;-74
2021/03/12 11:10:16;;;;;;;0.10;0.10;;;;;;;;;;5082316;28;20418;-78
2021/03/12 11:12:44;;;;;;;0.10;0.10;;;;;;;;;;5082120;28;20235;-75
2021/03/12 11:15:11;;;;;;;0.10;0.10;;;;;;;;;;5064834;28;20236;-74
2021/03/12 11:17:41;;;;;;;0.10;0.10;;;;;;;;;;5062487;28;20463;-76
2021/03/12 11:20:07;;;;;;;0.10;0.10;;;;;;;;;;5076532;28;20234;-75
2021/03/12 11:22:34;;;;;;;0.10;0.10;;;;;;;;;;5082311;28;20282;-76
2021/03/12 11:25:00;;;;;;;0.10;0.10;;;;;;;;;;5063834;28;20195;-77
2021/03/12 11:27:27;;;;;;;0.10;0.10;;;;;;;;;;5082746;28;20280;-75
2021/03/12 11:29:54;;;;;;;0.10;0.10;;;;;;;;;;5061242;28;20193;-75
2021/03/12 11:32:20;;;;;;;0.10;0.10;;;;;;;;;;5065882;28;20224;-76
2021/03/12 11:34:48;;;;;;;0.10;0.10;;;;;;;;;;5060218;28;20199;-76
2021/03/12 11:37:14;;;;;;;0.10;0.10;;;;;;;;;;5056167;28;20212;-76
2021/03/12 11:39:41;;;;;;;0.10;0.10;;;;;;;;;;5057857;28;20285;-77
2021/03/12 11:42:07;;;;;;;0.10;0.10;;;;;;;;;;5064030;28;20200;-73
2021/03/12 11:44:33;;;;;;;0.10;0.10;;;;;;;;;;5065849;28;20569;-76
2021/03/12 11:47:00;;;;;;;0.10;0.10;;;;;;;;;;5081512;28;20215;-78
2021/03/12 11:49:26;;;;;;;0.40;0.40;;;;;;;;;;5063427;28;20404;-77
2021/03/12 11:51:53;;;;;;;0.10;0.10;;;;;;;;;;5062614;28;20406;-79
2021/03/12 11:54:20;;;;;;;0.10;0.10;;;;;;;;;;5063322;28;20423;-79
2021/03/12 11:56:47;;;;;;;0.10;0.10;;;;;;;;;;5060067;28;20275;-78
2021/03/12 11:59:13;;;;;;;0.10;0.10;;;;;;;;;;5062952;28;20609;-79
2021/03/12 12:01:40;;;;;;;0.10;0.10;;;;;;;;;;5062077;28;20219;-77
2021/03/12 12:04:06;;;;;;;0.10;0.10;;;;;;;;;;5059605;28;20215;-78
2021/03/12 12:06:33;;;;;;;1.03;1.03;;;;;;;;;;5063038;28;20208;-78
2021/03/12 12:09:00;;;;;;;0.10;0.10;;;;;;;;;;5081067;28;20393;-78
2021/03/12 12:11:27;;;;;;;0.10;0.10;;;;;;;;;;5063840;28;20209;-77
2021/03/12 12:13:53;;;;;;;0.10;0.10;;;;;;;;;;5081114;28;20200;-78
2021/03/12 12:16:19;;;;;;;0.10;0.10;;;;;;;;;;5079837;28;20214;-78
2021/03/12 12:18:46;;;;;;;0.20;0.20;;;;;;;;;;5063514;28;20227;-77
2021/03/12 12:21:12;;;;;;;0.10;0.10;;;;;;;;;;5060886;28;20218;-79
2021/03/12 12:23:38;;;;;;;0.20;0.20;;;;;;;;;;5075470;28;20518;-77
2021/03/12 12:26:06;;;;;;;0.10;0.10;;;;;;;;;;5062562;28;20241;-78
2021/03/12 12:28:32;;;;;;;0.10;0.10;;;;;;;;;;5063309;28;20259;-78
2021/03/12 12:31:01;;;;;;;0.10;0.10;;;;;;;;;;5062973;28;20275;-78
2021/03/12 12:33:26;;;;;;;0.10;0.10;;;;;;;;;;5080905;28;20249;-79
2021/03/12 12:35:53;;;;;;;0.10;0.10;;;;;;;;;;5083081;28;20200;-82
2021/03/12 12:38:20;;;;;;;0.10;0.10;;;;;;;;;;5061697;28;20219;-79
2021/03/12 12:40:46;;;;;;;0.40;0.40;;;;;;;;;;5056911;28;20201;-79
2021/03/12 12:43:13;;;;;;;0.10;0.10;;;;;;;;;;5058318;28;20235;-77
2021/03/12 12:45:40;;;;;;;0.10;0.10;;;;;;;;;;5075958;28;20400;-78
2021/03/12 12:48:07;;;;;;;0.10;0.10;;;;;;;;;;5062664;28;20223;-80
2021/03/12 12:50:34;;;;;;;0.20;0.20;;;;;;;;;;5056708;28;20197;-79
2021/03/12 12:53:00;;;;;;;0.37;0.37;;;;;;;;;;5063166;28;20203;-77
2021/03/12 12:55:26;;;;;;;0.10;0.10;;;;;;;;;;5071358;28;20647;-79
2021/03/12 12:57:53;;;;;;;0.10;0.10;;;;;;;;;;5059543;28;20206;-76
2021/03/12 13:00:21;;;;;;;0.10;0.10;;;;;;;;;;5062114;28;20235;-79
2021/03/12 13:02:48;;;;;;;0.10;0.10;;;;;;;;;;5079216;28;20231;-67
2021/03/12 13:05:15;;;;;;;0.17;0.17;;;;;;;;;;5056283;28;20220;-67
2021/03/12 13:07:41;;;;;;;0.10;0.10;;;;;;;;;;5074915;28;20242;-67
2021/03/12 13:10:09;;;;;;;8.03;0.30;;;;;;;;;;5057991;28;20196;-65
2021/03/12 13:12:35;;;;;;;0.10;0.10;;;;;;;;;;5074788;28;20272;-76
2021/03/12 13:15:02;;;;;;;0.10;0.10;;;;;;;;;;5077888;28;20208;-74
2021/03/12 13:17:30;;;;;;;0.10;0.10;;;;;;;;;;5069136;28;20209;-76
2021/03/12 13:19:56;;;;;;;0.10;0.10;;;;;;;;;;5062834;28;20227;-77
2021/03/12 13:22:23;;;;;;;0.10;0.10;;;;;;;;;;5080697;28;20432;-78
2021/03/12 13:24:49;;;;;;;0.20;0.20;;;;;;;;;;5076558;28;20236;-76
2021/03/12 13:27:16;;;;;;;0.10;0.10;;;;;;;;;;5063401;28;20193;-77
2021/03/12 13:29:43;;;;;;;0.10;0.10;;;;;;;;;;5063136;28;20538;-77
2021/03/12 13:32:09;;;;;;;0.10;0.10;;;;;;;;;;5071114;28;20346;-77
2021/03/12 13:34:38;;;;;;;0.10;0.10;;;;;;;;;;5052499;28;20279;-77
2021/03/12 13:37:05;;;;;;;0.10;0.10;;;;;;;;;;5062474;28;20234;-76
2021/03/12 13:39:31;;;;;;;0.10;0.10;;;;;;;;;;5079153;28;20471;-76
2021/03/12 13:42:00;;;;;;;0.10;0.10;;;;;;;;;;5059429;28;20561;-77
2021/03/12 13:44:27;;;;;;;0.20;0.20;;;;;;;;;;5081218;28;20244;-78
2021/03/12 13:46:54;;;;;;;0.10;0.10;;;;;;;;;;5056024;28;20579;-67
2021/03/12 13:49:20;;;;;;;0.10;0.10;;;;;;;;;;5078057;28;20420;-66
2021/03/12 13:51:47;;;;;;;0.10;0.10;;;;;;;;;;5063406;28;20216;-65
2021/03/12 13:54:14;;;;;;;0.10;0.10;;;;;;;;;;5077743;28;20206;-66
2021/03/12 13:56:40;;;;;;;0.10;0.10;;;;;;;;;;5062921;28;20232;-77
2021/03/12 13:59:07;;;;;;;0.10;0.10;;;;;;;;;;5061518;28;20217;-78
2021/03/12 14:01:33;;;;;;;0.10;0.10;;;;;;;;;;5079121;28;20200;-79
2021/03/12 14:04:00;;;;;;;0.13;0.13;;;;;;;;;;5061927;28;20421;-79
2021/03/12 14:06:26;;;;;;;0.10;0.10;;;;;;;;;;5051422;28;20200;-77
2021/03/12 14:08:54;;;;;;;0.10;0.10;;;;;;;;;;5047113;28;20193;-77
2021/03/12 14:11:20;;;;;;;0.10;0.10;;;;;;;;;;5067150;28;20204;-78
2021/03/12 14:13:47;;;;;;;0.10;0.10;;;;;;;;;;5060408;28;20482;-78
2021/03/12 14:16:13;;;;;;;0.10;0.10;;;;;;;;;;5067691;28;20200;-77
2021/03/12 14:18:40;;;;;;;0.10;0.10;;;;;;;;;;5083349;28;20220;-77
2021/03/12 14:21:07;;;;;;;0.10;0.10;;;;;;;;;;5082378;28;20503;-77
2021/03/12 14:23:34;;;;;;;0.10;0.10;;;;;;;;;;5069032;28;20276;-78
2021/03/12 14:26:01;;;;;;;0.10;0.10;;;;;;;;;;5083877;28;20233;-77
2021/03/12 14:28:28;;;;;;;0.10;0.10;;;;;;;;;;5068302;28;20205;-78
2021/03/12 14:30:55;;;;;;;0.10;0.10;;;;;;;;;;5060421;28;20210;-77
2021/03/12 14:33:21;;;;;;;0.10;0.10;;;;;;;;;;5061909;28;20249;-77
2021/03/12 14:35:47;;;;;;;0.20;0.20;;;;;;;;;;5076702;28;20278;-77
2021/03/12 14:38:14;;;;;;;0.10;0.10;;;;;;;;;;5060250;28;20200;-78
2021/03/12 14:40:40;;;;;;;0.10;0.10;;;;;;;;;;5058207;28;20511;-75
2021/03/12 14:43:07;;;;;;;1.20;1.20;;;;;;;;;;5082590;28;20216;-67